sensor_id;sensor_type;location;lat;lon;timestamp;P1;durP1;ratioP1;P2;durP2;ratioP2
10059;SDS011;5069;49.306;8.636;2022-07-18T00:02:55;1.67;;;1.30;;
10059;SDS011;5069;49.306;8.636;2022-07-18T00:05:56;2.67;;;1.30;;
10059;SDS011;5069;49.306;8.636;2022-07-18T00:08:58;1.77;;;1.40;;
10059;SDS011;5069;49.306;8.636;2022-07-18T00:11:59;4.80;;;1.50;;
10059;SDS011;5069;49.306;8.636;2022-07-18T00:15:02;3.70;;;1.70;;
10059;SDS011;5069;49.306;8.636;2022-07-18T00:18:04;3.63;;;1.70;;
10059;SDS011;5069;49.306;8.636;2022-07-18T00:21:05;6.97;;;1.30;;
10059;SDS011;5069;49.306;8.636;2022-07-18T00:24:07;2.80;;;1.63;;
10059;SDS011;5069;49.306;8.636;2022-07-18T00:27:08;3.03;;;1.50;;
10059;SDS011;5069;49.306;8.636;2022-07-18T00:30:10;4.47;;;1.60;;
10059;SDS011;5069;49.306;8.636;2022-07-18T00:33:12;3.67;;;1.60;;
10059;SDS011;5069;49.306;8.636;2022-07-18T00:36:13;2.07;;;1.50;;
10059;SDS011;5069;49.306;8.636;2022-07-18T00:39:15;2.73;;;1.33;;
10059;SDS011;5069;49.306;8.636;2022-07-18T00:42:16;4.40;;;1.60;;
10059;SDS011;5069;49.306;8.636;2022-07-18T00:45:18;4.70;;;1.60;;
10059;SDS011;5069;49.306;8.636;2022-07-18T00:48:20;2.33;;;1.50;;
10059;SDS011;5069;49.306;8.636;2022-07-18T00:51:21;3.63;;;1.60;;
10059;SDS011;5069;49.306;8.636;2022-07-18T00:54:23;2.93;;;1.40;;
10059;SDS011;5069;49.306;8.636;2022-07-18T00:57:26;3.20;;;1.50;;
10059;SDS011;5069;49.306;8.636;2022-07-18T01:00:28;2.20;;;1.43;;
10059;SDS011;5069;49.306;8.636;2022-07-18T01:03:48;2.17;;;1.40;;
10059;SDS011;5069;49.306;8.636;2022-07-18T01:06:50;2.67;;;1.70;;
10059;SDS011;5069;49.306;8.636;2022-07-18T01:09:52;3.23;;;1.57;;
10059;SDS011;5069;49.306;8.636;2022-07-18T01:12:54;4.03;;;1.80;;
10059;SDS011;5069;49.306;8.636;2022-07-18T01:15:55;5.40;;;2.00;;
10059;SDS011;5069;49.306;8.636;2022-07-18T01:18:57;3.37;;;1.77;;
10059;SDS011;5069;49.306;8.636;2022-07-18T01:21:58;2.07;;;1.70;;
10059;SDS011;5069;49.306;8.636;2022-07-18T01:24:59;3.10;;;2.07;;
10059;SDS011;5069;49.306;8.636;2022-07-18T01:28:02;2.33;;;1.90;;
10059;SDS011;5069;49.306;8.636;2022-07-18T01:31:03;4.57;;;2.00;;
10059;SDS011;5069;49.306;8.636;2022-07-18T01:34:05;2.73;;;1.83;;
10059;SDS011;5069;49.306;8.636;2022-07-18T01:37:07;3.60;;;2.23;;
10059;SDS011;5069;49.306;8.636;2022-07-18T01:40:09;5.67;;;1.80;;
10059;SDS011;5069;49.306;8.636;2022-07-18T01:43:12;3.83;;;1.80;;
10059;SDS011;5069;49.306;8.636;2022-07-18T01:46:13;4.40;;;2.07;;
10059;SDS011;5069;49.306;8.636;2022-07-18T01:49:15;5.93;;;1.73;;
10059;SDS011;5069;49.306;8.636;2022-07-18T01:52:16;2.33;;;1.80;;
10059;SDS011;5069;49.306;8.636;2022-07-18T01:55:19;3.73;;;2.07;;
10059;SDS011;5069;49.306;8.636;2022-07-18T01:58:20;3.73;;;1.80;;
10059;SDS011;5069;49.306;8.636;2022-07-18T02:01:22;2.13;;;1.77;;
10059;SDS011;5069;49.306;8.636;2022-07-18T02:04:23;4.73;;;1.90;;
10059;SDS011;5069;49.306;8.636;2022-07-18T02:07:45;2.47;;;1.80;;
10059;SDS011;5069;49.306;8.636;2022-07-18T02:10:47;2.43;;;1.90;;
10059;SDS011;5069;49.306;8.636;2022-07-18T02:13:49;2.63;;;1.90;;
10059;SDS011;5069;49.306;8.636;2022-07-18T02:16:50;4.17;;;1.83;;
10059;SDS011;5069;49.306;8.636;2022-07-18T02:19:52;3.60;;;2.20;;
10059;SDS011;5069;49.306;8.636;2022-07-18T02:22:53;2.47;;;1.67;;
10059;SDS011;5069;49.306;8.636;2022-07-18T02:25:55;2.23;;;1.73;;
10059;SDS011;5069;49.306;8.636;2022-07-18T02:28:57;4.63;;;1.70;;
10059;SDS011;5069;49.306;8.636;2022-07-18T02:31:58;3.63;;;1.57;;
10059;SDS011;5069;49.306;8.636;2022-07-18T02:35:00;4.23;;;1.63;;
10059;SDS011;5069;49.306;8.636;2022-07-18T02:38:02;3.07;;;1.60;;
10059;SDS011;5069;49.306;8.636;2022-07-18T02:41:04;1.50;;;1.40;;
10059;SDS011;5069;49.306;8.636;2022-07-18T02:44:05;1.90;;;1.50;;
10059;SDS011;5069;49.306;8.636;2022-07-18T02:47:07;2.90;;;1.30;;
10059;SDS011;5069;49.306;8.636;2022-07-18T02:50:09;1.70;;;1.20;;
10059;SDS011;5069;49.306;8.636;2022-07-18T02:53:11;2.57;;;1.37;;
10059;SDS011;5069;49.306;8.636;2022-07-18T02:56:12;1.73;;;1.33;;
10059;SDS011;5069;49.306;8.636;2022-07-18T02:59:14;3.30;;;1.40;;
10059;SDS011;5069;49.306;8.636;2022-07-18T03:02:15;3.00;;;1.40;;
10059;SDS011;5069;49.306;8.636;2022-07-18T03:05:17;3.77;;;1.60;;
10059;SDS011;5069;49.306;8.636;2022-07-18T03:08:18;3.40;;;1.50;;
10059;SDS011;5069;49.306;8.636;2022-07-18T03:11:20;3.03;;;1.40;;
10059;SDS011;5069;49.306;8.636;2022-07-18T03:14:21;2.60;;;1.30;;
10059;SDS011;5069;49.306;8.636;2022-07-18T03:17:23;1.43;;;1.27;;
10059;SDS011;5069;49.306;8.636;2022-07-18T03:20:25;2.00;;;1.50;;
10059;SDS011;5069;49.306;8.636;2022-07-18T03:23:26;2.10;;;1.70;;
10059;SDS011;5069;49.306;8.636;2022-07-18T03:26:28;2.17;;;1.17;;
10059;SDS011;5069;49.306;8.636;2022-07-18T03:29:30;2.00;;;1.30;;
10059;SDS011;5069;49.306;8.636;2022-07-18T03:32:31;2.57;;;1.40;;
10059;SDS011;5069;49.306;8.636;2022-07-18T03:35:33;1.47;;;1.37;;
10059;SDS011;5069;49.306;8.636;2022-07-18T03:38:34;4.43;;;1.57;;
10059;SDS011;5069;49.306;8.636;2022-07-18T03:41:37;1.87;;;1.60;;
10059;SDS011;5069;49.306;8.636;2022-07-18T03:44:39;5.03;;;1.47;;
10059;SDS011;5069;49.306;8.636;2022-07-18T03:47:41;2.00;;;1.40;;
10059;SDS011;5069;49.306;8.636;2022-07-18T03:50:42;3.60;;;1.63;;
10059;SDS011;5069;49.306;8.636;2022-07-18T03:53:44;4.27;;;1.70;;
10059;SDS011;5069;49.306;8.636;2022-07-18T03:56:45;2.80;;;1.50;;
10059;SDS011;5069;49.306;8.636;2022-07-18T03:59:47;2.93;;;1.43;;
10059;SDS011;5069;49.306;8.636;2022-07-18T04:02:48;4.90;;;1.60;;
10059;SDS011;5069;49.306;8.636;2022-07-18T04:05:50;4.73;;;1.67;;
10059;SDS011;5069;49.306;8.636;2022-07-18T04:08:51;3.63;;;1.63;;
10059;SDS011;5069;49.306;8.636;2022-07-18T04:11:53;1.87;;;1.40;;
10059;SDS011;5069;49.306;8.636;2022-07-18T04:14:54;3.00;;;1.33;;
10059;SDS011;5069;49.306;8.636;2022-07-18T04:17:56;3.80;;;1.40;;
10059;SDS011;5069;49.306;8.636;2022-07-18T04:20:57;6.73;;;1.47;;
10059;SDS011;5069;49.306;8.636;2022-07-18T04:23:59;2.33;;;1.63;;
10059;SDS011;5069;49.306;8.636;2022-07-18T04:27:00;3.50;;;1.60;;
10059;SDS011;5069;49.306;8.636;2022-07-18T04:30:02;2.23;;;1.57;;
10059;SDS011;5069;49.306;8.636;2022-07-18T04:33:05;3.37;;;1.60;;
10059;SDS011;5069;49.306;8.636;2022-07-18T04:36:08;1.97;;;1.37;;
10059;SDS011;5069;49.306;8.636;2022-07-18T04:39:10;5.67;;;1.77;;
10059;SDS011;5069;49.306;8.636;2022-07-18T04:42:11;1.50;;;1.40;;
10059;SDS011;5069;49.306;8.636;2022-07-18T04:45:13;2.17;;;1.40;;
10059;SDS011;5069;49.306;8.636;2022-07-18T04:48:15;3.93;;;1.57;;
10059;SDS011;5069;49.306;8.636;2022-07-18T04:51:16;2.87;;;1.73;;
10059;SDS011;5069;49.306;8.636;2022-07-18T04:54:18;3.17;;;1.60;;
10059;SDS011;5069;49.306;8.636;2022-07-18T04:57:19;5.00;;;1.87;;
10059;SDS011;5069;49.306;8.636;2022-07-18T05:00:22;3.70;;;1.60;;
10059;SDS011;5069;49.306;8.636;2022-07-18T05:03:25;5.07;;;1.80;;
10059;SDS011;5069;49.306;8.636;2022-07-18T05:06:26;2.87;;;1.73;;
10059;SDS011;5069;49.306;8.636;2022-07-18T05:09:28;5.97;;;1.67;;
10059;SDS011;5069;49.306;8.636;2022-07-18T05:12:29;7.03;;;1.60;;
10059;SDS011;5069;49.306;8.636;2022-07-18T05:15:31;3.70;;;1.67;;
10059;SDS011;5069;49.306;8.636;2022-07-18T05:18:32;2.27;;;1.40;;
10059;SDS011;5069;49.306;8.636;2022-07-18T05:21:34;5.00;;;1.70;;
10059;SDS011;5069;49.306;8.636;2022-07-18T05:24:35;5.30;;;1.57;;
10059;SDS011;5069;49.306;8.636;2022-07-18T05:27:37;3.73;;;1.60;;
10059;SDS011;5069;49.306;8.636;2022-07-18T05:30:39;3.13;;;1.40;;
10059;SDS011;5069;49.306;8.636;2022-07-18T05:33:40;4.13;;;1.77;;
10059;SDS011;5069;49.306;8.636;2022-07-18T05:36:42;4.27;;;1.80;;
10059;SDS011;5069;49.306;8.636;2022-07-18T05:39:43;3.37;;;2.00;;
10059;SDS011;5069;49.306;8.636;2022-07-18T05:42:45;10.43;;;2.00;;
10059;SDS011;5069;49.306;8.636;2022-07-18T05:45:55;2.43;;;1.80;;
10059;SDS011;5069;49.306;8.636;2022-07-18T05:48:57;8.80;;;2.30;;
10059;SDS011;5069;49.306;8.636;2022-07-18T05:51:59;6.77;;;2.37;;
10059;SDS011;5069;49.306;8.636;2022-07-18T05:55:00;3.77;;;1.70;;
10059;SDS011;5069;49.306;8.636;2022-07-18T05:58:02;4.07;;;1.70;;
10059;SDS011;5069;49.306;8.636;2022-07-18T06:01:03;4.53;;;1.70;;
10059;SDS011;5069;49.306;8.636;2022-07-18T06:04:05;4.43;;;2.27;;
10059;SDS011;5069;49.306;8.636;2022-07-18T06:07:06;6.47;;;2.50;;
10059;SDS011;5069;49.306;8.636;2022-07-18T06:10:08;6.63;;;3.30;;
10059;SDS011;5069;49.306;8.636;2022-07-18T06:13:10;10.53;;;5.10;;
10059;SDS011;5069;49.306;8.636;2022-07-18T06:16:12;13.73;;;7.17;;
10059;SDS011;5069;49.306;8.636;2022-07-18T06:19:13;17.73;;;8.40;;
10059;SDS011;5069;49.306;8.636;2022-07-18T06:22:21;12.10;;;7.83;;
10059;SDS011;5069;49.306;8.636;2022-07-18T06:25:27;12.83;;;7.47;;
10059;SDS011;5069;49.306;8.636;2022-07-18T06:28:29;18.80;;;8.40;;
10059;SDS011;5069;49.306;8.636;2022-07-18T06:31:30;16.13;;;8.83;;
10059;SDS011;5069;49.306;8.636;2022-07-18T06:34:32;13.93;;;7.87;;
10059;SDS011;5069;49.306;8.636;2022-07-18T06:37:34;17.43;;;8.67;;
10059;SDS011;5069;49.306;8.636;2022-07-18T06:40:36;14.17;;;8.47;;
10059;SDS011;5069;49.306;8.636;2022-07-18T06:43:37;14.90;;;8.57;;
10059;SDS011;5069;49.306;8.636;2022-07-18T06:46:40;14.30;;;8.03;;
10059;SDS011;5069;49.306;8.636;2022-07-18T06:49:42;17.17;;;8.50;;
10059;SDS011;5069;49.306;8.636;2022-07-18T06:52:43;12.57;;;7.80;;
10059;SDS011;5069;49.306;8.636;2022-07-18T06:55:47;14.30;;;7.47;;
10059;SDS011;5069;49.306;8.636;2022-07-18T06:58:48;7.33;;;3.97;;
10059;SDS011;5069;49.306;8.636;2022-07-18T07:01:51;6.93;;;3.60;;
10059;SDS011;5069;49.306;8.636;2022-07-18T07:04:52;9.20;;;3.30;;
10059;SDS011;5069;49.306;8.636;2022-07-18T07:07:54;6.37;;;3.20;;
10059;SDS011;5069;49.306;8.636;2022-07-18T07:10:55;7.00;;;2.97;;
10059;SDS011;5069;49.306;8.636;2022-07-18T07:13:57;8.90;;;3.10;;
10059;SDS011;5069;49.306;8.636;2022-07-18T07:16:59;6.47;;;3.70;;
10059;SDS011;5069;49.306;8.636;2022-07-18T07:20:00;7.43;;;3.33;;
10059;SDS011;5069;49.306;8.636;2022-07-18T07:23:02;7.63;;;3.27;;
10059;SDS011;5069;49.306;8.636;2022-07-18T07:26:08;7.17;;;2.80;;
10059;SDS011;5069;49.306;8.636;2022-07-18T07:29:10;5.33;;;1.90;;
10059;SDS011;5069;49.306;8.636;2022-07-18T07:32:11;5.97;;;1.93;;
10059;SDS011;5069;49.306;8.636;2022-07-18T07:35:13;6.37;;;2.23;;
10059;SDS011;5069;49.306;8.636;2022-07-18T07:38:17;4.40;;;1.90;;
10059;SDS011;5069;49.306;8.636;2022-07-18T07:41:23;4.70;;;1.80;;
10059;SDS011;5069;49.306;8.636;2022-07-18T07:44:25;3.27;;;1.90;;
10059;SDS011;5069;49.306;8.636;2022-07-18T07:47:26;7.40;;;2.03;;
10059;SDS011;5069;49.306;8.636;2022-07-18T07:50:30;8.00;;;2.23;;
10059;SDS011;5069;49.306;8.636;2022-07-18T07:53:32;6.10;;;2.00;;
10059;SDS011;5069;49.306;8.636;2022-07-18T07:56:33;5.00;;;1.88;;
10059;SDS011;5069;49.306;8.636;2022-07-18T07:59:35;9.07;;;2.13;;
10059;SDS011;5069;49.306;8.636;2022-07-18T08:02:37;9.30;;;2.20;;
10059;SDS011;5069;49.306;8.636;2022-07-18T08:05:43;9.98;;;2.50;;
10059;SDS011;5069;49.306;8.636;2022-07-18T08:08:46;6.43;;;2.37;;
10059;SDS011;5069;49.306;8.636;2022-07-18T08:11:48;4.05;;;2.70;;
10059;SDS011;5069;49.306;8.636;2022-07-18T08:14:49;5.07;;;2.07;;
10059;SDS011;5069;49.306;8.636;2022-07-18T08:17:52;4.47;;;1.90;;
10059;SDS011;5069;49.306;8.636;2022-07-18T08:20:54;7.50;;;1.80;;
10059;SDS011;5069;49.306;8.636;2022-07-18T08:23:55;6.68;;;1.80;;
10059;SDS011;5069;49.306;8.636;2022-07-18T08:27:05;9.90;;;1.50;;
10059;SDS011;5069;49.306;8.636;2022-07-18T08:30:06;7.75;;;2.20;;
10059;SDS011;5069;49.306;8.636;2022-07-18T08:33:09;5.05;;;1.50;;
10059;SDS011;5069;49.306;8.636;2022-07-18T08:36:10;6.88;;;1.48;;
10059;SDS011;5069;49.306;8.636;2022-07-18T08:39:12;8.35;;;1.30;;
10059;SDS011;5069;49.306;8.636;2022-07-18T08:42:14;5.30;;;1.42;;
10059;SDS011;5069;49.306;8.636;2022-07-18T08:45:19;4.13;;;1.45;;
10059;SDS011;5069;49.306;8.636;2022-07-18T08:48:23;4.90;;;1.80;;
10059;SDS011;5069;49.306;8.636;2022-07-18T08:51:25;7.63;;;1.40;;
10059;SDS011;5069;49.306;8.636;2022-07-18T08:54:26;2.92;;;1.52;;
10059;SDS011;5069;49.306;8.636;2022-07-18T08:57:28;6.72;;;1.70;;
10059;SDS011;5069;49.306;8.636;2022-07-18T09:00:30;2.70;;;1.40;;
10059;SDS011;5069;49.306;8.636;2022-07-18T09:03:39;3.28;;;1.40;;
10059;SDS011;5069;49.306;8.636;2022-07-18T09:06:45;1.88;;;1.30;;
10059;SDS011;5069;49.306;8.636;2022-07-18T09:09:51;3.45;;;1.40;;
10059;SDS011;5069;49.306;8.636;2022-07-18T09:12:56;2.90;;;1.10;;
10059;SDS011;5069;49.306;8.636;2022-07-18T09:16:11;2.63;;;1.13;;
10059;SDS011;5069;49.306;8.636;2022-07-18T09:19:15;1.20;;;1.00;;
10059;SDS011;5069;49.306;8.636;2022-07-18T09:22:18;7.68;;;1.08;;
10059;SDS011;5069;49.306;8.636;2022-07-18T09:25:22;3.50;;;1.35;;
10059;SDS011;5069;49.306;8.636;2022-07-18T09:28:26;2.80;;;1.45;;
10059;SDS011;5069;49.306;8.636;2022-07-18T09:31:28;2.22;;;1.20;;
10059;SDS011;5069;49.306;8.636;2022-07-18T09:34:33;1.90;;;1.40;;
10059;SDS011;5069;49.306;8.636;2022-07-18T09:37:34;2.65;;;1.33;;
10059;SDS011;5069;49.306;8.636;2022-07-18T09:40:37;2.83;;;1.48;;
10059;SDS011;5069;49.306;8.636;2022-07-18T09:43:48;2.45;;;1.45;;
10059;SDS011;5069;49.306;8.636;2022-07-18T09:47:03;3.58;;;1.38;;
10059;SDS011;5069;49.306;8.636;2022-07-18T09:50:06;1.73;;;1.10;;
10059;SDS011;5069;49.306;8.636;2022-07-18T09:53:22;5.05;;;1.38;;
10059;SDS011;5069;49.306;8.636;2022-07-18T09:56:35;2.13;;;1.30;;
10059;SDS011;5069;49.306;8.636;2022-07-18T09:59:40;4.88;;;1.40;;
10059;SDS011;5069;49.306;8.636;2022-07-18T10:02:49;3.20;;;1.33;;
10059;SDS011;5069;49.306;8.636;2022-07-18T10:05:53;2.25;;;1.30;;
10059;SDS011;5069;49.306;8.636;2022-07-18T10:08:56;1.40;;;1.30;;
10059;SDS011;5069;49.306;8.636;2022-07-18T10:11:59;1.30;;;1.20;;
10059;SDS011;5069;49.306;8.636;2022-07-18T10:15:03;3.10;;;1.40;;
10059;SDS011;5069;49.306;8.636;2022-07-18T10:18:06;3.10;;;1.48;;
10059;SDS011;5069;49.306;8.636;2022-07-18T10:21:12;2.83;;;1.45;;
10059;SDS011;5069;49.306;8.636;2022-07-18T10:24:16;1.83;;;1.48;;
10059;SDS011;5069;49.306;8.636;2022-07-18T10:27:19;1.70;;;1.60;;
10059;SDS011;5069;49.306;8.636;2022-07-18T10:30:29;3.65;;;1.48;;
10059;SDS011;5069;49.306;8.636;2022-07-18T10:39:44;3.95;;;1.50;;
10059;SDS011;5069;49.306;8.636;2022-07-18T10:46:37;2.30;;;1.60;;
10059;SDS011;5069;49.306;8.636;2022-07-18T10:50:09;3.55;;;1.63;;
10059;SDS011;5069;49.306;8.636;2022-07-18T10:53:11;2.30;;;1.70;;
10059;SDS011;5069;49.306;8.636;2022-07-18T10:56:12;2.15;;;1.45;;
10059;SDS011;5069;49.306;8.636;2022-07-18T10:59:23;3.92;;;1.42;;
10059;SDS011;5069;49.306;8.636;2022-07-18T11:02:30;1.67;;;1.30;;
10059;SDS011;5069;49.306;8.636;2022-07-18T11:05:34;1.40;;;1.30;;
10059;SDS011;5069;49.306;8.636;2022-07-18T11:08:42;2.45;;;1.30;;
10059;SDS011;5069;49.306;8.636;2022-07-18T11:15:19;2.95;;;1.25;;
10059;SDS011;5069;49.306;8.636;2022-07-18T11:18:21;3.05;;;1.67;;
10059;SDS011;5069;49.306;8.636;2022-07-18T11:21:30;2.42;;;1.20;;
10059;SDS011;5069;49.306;8.636;2022-07-18T11:24:40;3.25;;;1.60;;
10059;SDS011;5069;49.306;8.636;2022-07-18T11:27:42;2.03;;;1.60;;
10059;SDS011;5069;49.306;8.636;2022-07-18T11:30:44;1.77;;;1.52;;
10059;SDS011;5069;49.306;8.636;2022-07-18T11:33:47;3.13;;;1.50;;
10059;SDS011;5069;49.306;8.636;2022-07-18T11:36:49;2.00;;;1.48;;
10059;SDS011;5069;49.306;8.636;2022-07-18T11:39:51;4.10;;;1.45;;
10059;SDS011;5069;49.306;8.636;2022-07-18T11:42:52;2.55;;;1.65;;
10059;SDS011;5069;49.306;8.636;2022-07-18T11:45:58;1.67;;;1.55;;
10059;SDS011;5069;49.306;8.636;2022-07-18T11:49:05;1.63;;;1.40;;
10059;SDS011;5069;49.306;8.636;2022-07-18T11:52:07;1.58;;;1.33;;
10059;SDS011;5069;49.306;8.636;2022-07-18T11:55:10;2.25;;;1.50;;
10059;SDS011;5069;49.306;8.636;2022-07-18T11:58:13;2.17;;;1.60;;
10059;SDS011;5069;49.306;8.636;2022-07-18T12:01:15;3.55;;;1.55;;
10059;SDS011;5069;49.306;8.636;2022-07-18T12:04:21;2.75;;;1.40;;
10059;SDS011;5069;49.306;8.636;2022-07-18T12:07:24;5.15;;;2.08;;
10059;SDS011;5069;49.306;8.636;2022-07-18T12:10:26;2.75;;;1.50;;
10059;SDS011;5069;49.306;8.636;2022-07-18T12:13:38;2.00;;;1.65;;
10059;SDS011;5069;49.306;8.636;2022-07-18T12:16:45;3.13;;;1.70;;
10059;SDS011;5069;49.306;8.636;2022-07-18T12:19:48;2.35;;;1.60;;
10059;SDS011;5069;49.306;8.636;2022-07-18T12:23:06;2.13;;;1.60;;
10059;SDS011;5069;49.306;8.636;2022-07-18T12:26:29;1.85;;;1.65;;
10059;SDS011;5069;49.306;8.636;2022-07-18T12:32:56;1.60;;;1.40;;
10059;SDS011;5069;49.306;8.636;2022-07-18T12:36:00;2.42;;;1.50;;
10059;SDS011;5069;49.306;8.636;2022-07-18T12:39:02;1.77;;;1.50;;
10059;SDS011;5069;49.306;8.636;2022-07-18T12:42:04;1.52;;;1.42;;
10059;SDS011;5069;49.306;8.636;2022-07-18T12:45:08;4.57;;;1.60;;
10059;SDS011;5069;49.306;8.636;2022-07-18T12:48:11;3.85;;;1.30;;
10059;SDS011;5069;49.306;8.636;2022-07-18T12:51:13;8.18;;;1.67;;
10059;SDS011;5069;49.306;8.636;2022-07-18T12:54:14;3.72;;;1.38;;
10059;SDS011;5069;49.306;8.636;2022-07-18T12:57:16;1.63;;;1.52;;
10059;SDS011;5069;49.306;8.636;2022-07-18T13:00:19;3.25;;;1.50;;
10059;SDS011;5069;49.306;8.636;2022-07-18T13:03:20;2.08;;;1.40;;
10059;SDS011;5069;49.306;8.636;2022-07-18T13:06:22;2.67;;;1.40;;
10059;SDS011;5069;49.306;8.636;2022-07-18T13:09:23;3.03;;;1.75;;
10059;SDS011;5069;49.306;8.636;2022-07-18T13:12:25;3.22;;;1.45;;
10059;SDS011;5069;49.306;8.636;2022-07-18T13:15:26;2.90;;;1.55;;
10059;SDS011;5069;49.306;8.636;2022-07-18T13:18:28;4.50;;;1.52;;
10059;SDS011;5069;49.306;8.636;2022-07-18T13:21:29;2.05;;;1.30;;
10059;SDS011;5069;49.306;8.636;2022-07-18T13:24:31;1.95;;;1.40;;
10059;SDS011;5069;49.306;8.636;2022-07-18T13:27:37;2.83;;;1.38;;
10059;SDS011;5069;49.306;8.636;2022-07-18T13:30:39;3.08;;;1.67;;
10059;SDS011;5069;49.306;8.636;2022-07-18T13:33:40;3.45;;;1.40;;
10059;SDS011;5069;49.306;8.636;2022-07-18T13:36:42;2.67;;;1.63;;
10059;SDS011;5069;49.306;8.636;2022-07-18T13:39:43;2.75;;;1.38;;
10059;SDS011;5069;49.306;8.636;2022-07-18T13:42:45;5.65;;;1.60;;
10059;SDS011;5069;49.306;8.636;2022-07-18T13:45:46;3.30;;;1.40;;
10059;SDS011;5069;49.306;8.636;2022-07-18T13:48:48;2.30;;;1.55;;
10059;SDS011;5069;49.306;8.636;2022-07-18T13:51:51;2.25;;;1.58;;
10059;SDS011;5069;49.306;8.636;2022-07-18T13:54:52;2.45;;;1.55;;
10059;SDS011;5069;49.306;8.636;2022-07-18T13:57:56;4.07;;;1.63;;
10059;SDS011;5069;49.306;8.636;2022-07-18T14:00:58;1.67;;;1.38;;
10059;SDS011;5069;49.306;8.636;2022-07-18T14:04:00;5.30;;;1.42;;
10059;SDS011;5069;49.306;8.636;2022-07-18T14:07:02;1.63;;;1.40;;
10059;SDS011;5069;49.306;8.636;2022-07-18T14:10:03;4.00;;;1.73;;
10059;SDS011;5069;49.306;8.636;2022-07-18T14:13:05;2.58;;;1.40;;
10059;SDS011;5069;49.306;8.636;2022-07-18T14:16:07;1.70;;;1.48;;
10059;SDS011;5069;49.306;8.636;2022-07-18T14:19:08;3.97;;;1.42;;
10059;SDS011;5069;49.306;8.636;2022-07-18T14:22:10;1.40;;;1.30;;
10059;SDS011;5069;49.306;8.636;2022-07-18T14:25:14;5.20;;;1.45;;
10059;SDS011;5069;49.306;8.636;2022-07-18T14:28:18;1.90;;;1.38;;
10059;SDS011;5069;49.306;8.636;2022-07-18T14:31:19;1.50;;;1.35;;
10059;SDS011;5069;49.306;8.636;2022-07-18T14:34:21;2.85;;;1.52;;
10059;SDS011;5069;49.306;8.636;2022-07-18T14:37:22;4.25;;;1.88;;
10059;SDS011;5069;49.306;8.636;2022-07-18T14:40:24;2.28;;;1.50;;
10059;SDS011;5069;49.306;8.636;2022-07-18T14:43:26;6.05;;;1.58;;
10059;SDS011;5069;49.306;8.636;2022-07-18T14:46:28;3.28;;;1.55;;
10059;SDS011;5069;49.306;8.636;2022-07-18T14:49:29;4.43;;;1.30;;
10059;SDS011;5069;49.306;8.636;2022-07-18T14:52:31;1.70;;;1.20;;
10059;SDS011;5069;49.306;8.636;2022-07-18T14:55:33;1.95;;;1.58;;
10059;SDS011;5069;49.306;8.636;2022-07-18T14:58:35;2.58;;;1.30;;
10059;SDS011;5069;49.306;8.636;2022-07-18T15:01:36;2.50;;;1.42;;
10059;SDS011;5069;49.306;8.636;2022-07-18T15:04:38;1.80;;;1.70;;
10059;SDS011;5069;49.306;8.636;2022-07-18T15:07:39;1.75;;;1.60;;
10059;SDS011;5069;49.306;8.636;2022-07-18T15:10:41;1.98;;;1.40;;
10059;SDS011;5069;49.306;8.636;2022-07-18T15:13:42;3.00;;;1.60;;
10059;SDS011;5069;49.306;8.636;2022-07-18T15:16:44;2.95;;;1.75;;
10059;SDS011;5069;49.306;8.636;2022-07-18T15:19:45;3.97;;;1.60;;
10059;SDS011;5069;49.306;8.636;2022-07-18T15:22:49;2.50;;;1.70;;
10059;SDS011;5069;49.306;8.636;2022-07-18T15:25:50;3.17;;;1.50;;
10059;SDS011;5069;49.306;8.636;2022-07-18T15:28:55;2.20;;;1.52;;
10059;SDS011;5069;49.306;8.636;2022-07-18T15:31:57;4.05;;;1.70;;
10059;SDS011;5069;49.306;8.636;2022-07-18T15:34:59;1.95;;;1.58;;
10059;SDS011;5069;49.306;8.636;2022-07-18T15:38:00;4.47;;;1.85;;
10059;SDS011;5069;49.306;8.636;2022-07-18T15:41:05;1.73;;;1.60;;
10059;SDS011;5069;49.306;8.636;2022-07-18T15:44:08;3.67;;;2.10;;
10059;SDS011;5069;49.306;8.636;2022-07-18T15:47:11;2.72;;;1.80;;
10059;SDS011;5069;49.306;8.636;2022-07-18T15:50:12;3.40;;;1.90;;
10059;SDS011;5069;49.306;8.636;2022-07-18T15:53:15;2.28;;;1.70;;
10059;SDS011;5069;49.306;8.636;2022-07-18T15:56:17;2.58;;;1.80;;
10059;SDS011;5069;49.306;8.636;2022-07-18T15:59:18;2.92;;;1.80;;
10059;SDS011;5069;49.306;8.636;2022-07-18T16:02:19;3.53;;;1.98;;
10059;SDS011;5069;49.306;8.636;2022-07-18T16:05:21;4.78;;;2.10;;
10059;SDS011;5069;49.306;8.636;2022-07-18T16:08:26;2.35;;;1.80;;
10059;SDS011;5069;49.306;8.636;2022-07-18T16:11:30;2.00;;;1.80;;
10059;SDS011;5069;49.306;8.636;2022-07-18T16:14:34;3.30;;;1.83;;
10059;SDS011;5069;49.306;8.636;2022-07-18T16:17:35;4.95;;;1.70;;
10059;SDS011;5069;49.306;8.636;2022-07-18T16:20:37;4.93;;;1.98;;
10059;SDS011;5069;49.306;8.636;2022-07-18T16:23:39;5.97;;;2.95;;
10059;SDS011;5069;49.306;8.636;2022-07-18T16:26:42;5.07;;;2.45;;
10059;SDS011;5069;49.306;8.636;2022-07-18T16:29:43;5.13;;;2.03;;
10059;SDS011;5069;49.306;8.636;2022-07-18T16:32:44;3.50;;;2.25;;
10059;SDS011;5069;49.306;8.636;2022-07-18T16:35:46;8.85;;;1.98;;
10059;SDS011;5069;49.306;8.636;2022-07-18T16:38:48;2.53;;;1.90;;
10059;SDS011;5069;49.306;8.636;2022-07-18T16:41:50;7.35;;;2.00;;
10059;SDS011;5069;49.306;8.636;2022-07-18T16:44:58;3.90;;;2.03;;
10059;SDS011;5069;49.306;8.636;2022-07-18T16:47:59;2.72;;;1.90;;
10059;SDS011;5069;49.306;8.636;2022-07-18T16:51:01;4.45;;;2.00;;
10059;SDS011;5069;49.306;8.636;2022-07-18T16:54:04;2.20;;;2.00;;
10059;SDS011;5069;49.306;8.636;2022-07-18T16:57:06;4.60;;;2.00;;
10059;SDS011;5069;49.306;8.636;2022-07-18T17:00:08;2.17;;;1.80;;
10059;SDS011;5069;49.306;8.636;2022-07-18T17:03:12;2.08;;;1.80;;
10059;SDS011;5069;49.306;8.636;2022-07-18T17:06:14;3.88;;;2.00;;
10059;SDS011;5069;49.306;8.636;2022-07-18T17:09:18;3.88;;;1.75;;
10059;SDS011;5069;49.306;8.636;2022-07-18T17:12:19;3.28;;;1.80;;
10059;SDS011;5069;49.306;8.636;2022-07-18T17:15:23;2.83;;;1.75;;
10059;SDS011;5069;49.306;8.636;2022-07-18T17:18:25;4.18;;;2.13;;
10059;SDS011;5069;49.306;8.636;2022-07-18T17:21:26;1.95;;;1.75;;
10059;SDS011;5069;49.306;8.636;2022-07-18T17:24:28;3.72;;;1.80;;
10059;SDS011;5069;49.306;8.636;2022-07-18T17:27:31;2.05;;;1.90;;
10059;SDS011;5069;49.306;8.636;2022-07-18T17:30:34;2.05;;;1.83;;
10059;SDS011;5069;49.306;8.636;2022-07-18T17:33:36;3.38;;;1.95;;
10059;SDS011;5069;49.306;8.636;2022-07-18T17:36:37;5.05;;;2.20;;
10059;SDS011;5069;49.306;8.636;2022-07-18T17:39:41;2.10;;;1.90;;
10059;SDS011;5069;49.306;8.636;2022-07-18T17:42:43;2.28;;;1.70;;
10059;SDS011;5069;49.306;8.636;2022-07-18T17:45:46;2.53;;;2.00;;
10059;SDS011;5069;49.306;8.636;2022-07-18T17:48:50;3.17;;;1.63;;
10059;SDS011;5069;49.306;8.636;2022-07-18T17:51:52;4.53;;;1.92;;
10059;SDS011;5069;49.306;8.636;2022-07-18T17:54:54;2.03;;;1.83;;
10059;SDS011;5069;49.306;8.636;2022-07-18T17:57:55;4.03;;;3.15;;
10059;SDS011;5069;49.306;8.636;2022-07-18T18:00:57;4.07;;;2.83;;
10059;SDS011;5069;49.306;8.636;2022-07-18T18:03:58;5.88;;;5.32;;
10059;SDS011;5069;49.306;8.636;2022-07-18T18:07:02;2.90;;;2.35;;
10059;SDS011;5069;49.306;8.636;2022-07-18T18:10:04;4.05;;;2.33;;
10059;SDS011;5069;49.306;8.636;2022-07-18T18:13:07;4.55;;;2.90;;
10059;SDS011;5069;49.306;8.636;2022-07-18T18:16:09;4.47;;;2.08;;
10059;SDS011;5069;49.306;8.636;2022-07-18T18:19:11;2.97;;;2.00;;
10059;SDS011;5069;49.306;8.636;2022-07-18T18:22:12;4.15;;;2.00;;
10059;SDS011;5069;49.306;8.636;2022-07-18T18:25:14;3.83;;;2.10;;
10059;SDS011;5069;49.306;8.636;2022-07-18T18:28:15;2.22;;;1.90;;
10059;SDS011;5069;49.306;8.636;2022-07-18T18:31:17;3.33;;;2.35;;
10059;SDS011;5069;49.306;8.636;2022-07-18T18:34:18;3.50;;;2.03;;
10059;SDS011;5069;49.306;8.636;2022-07-18T18:37:20;2.47;;;2.03;;
10059;SDS011;5069;49.306;8.636;2022-07-18T18:40:21;5.78;;;2.30;;
10059;SDS011;5069;49.306;8.636;2022-07-18T18:43:23;3.28;;;1.80;;
10059;SDS011;5069;49.306;8.636;2022-07-18T18:46:26;4.10;;;1.77;;
10059;SDS011;5069;49.306;8.636;2022-07-18T18:49:27;3.15;;;1.90;;
10059;SDS011;5069;49.306;8.636;2022-07-18T18:52:30;4.68;;;2.03;;
10059;SDS011;5069;49.306;8.636;2022-07-18T18:55:32;3.05;;;1.95;;